sensor_id;sensor_type;location;lat;lon;timestamp;P1;durP1;ratioP1;P2;durP2;ratioP2
16820;SDS011;8527;49.740;6.604;2023-06-26T00:04:42;12.50;;;6.60;;
16820;SDS011;8527;49.740;6.604;2023-06-26T00:09:41;12.27;;;6.60;;
16820;SDS011;8527;49.740;6.604;2023-06-26T00:14:45;12.15;;;7.03;;
16820;SDS011;8527;49.740;6.604;2023-06-26T00:19:43;11.88;;;7.28;;
16820;SDS011;8527;49.740;6.604;2023-06-26T00:24:44;10.10;;;6.72;;
16820;SDS011;8527;49.740;6.604;2023-06-26T00:29:45;10.60;;;6.78;;
16820;SDS011;8527;49.740;6.604;2023-06-26T00:34:43;12.52;;;6.93;;
16820;SDS011;8527;49.740;6.604;2023-06-26T00:39:41;13.18;;;7.35;;
16820;SDS011;8527;49.740;6.604;2023-06-26T00:44:40;12.60;;;7.07;;
16820;SDS011;8527;49.740;6.604;2023-06-26T00:49:41;12.77;;;7.60;;
16820;SDS011;8527;49.740;6.604;2023-06-26T00:54:39;9.75;;;6.57;;
16820;SDS011;8527;49.740;6.604;2023-06-26T00:59:38;14.43;;;7.25;;
16820;SDS011;8527;49.740;6.604;2023-06-26T01:04:36;11.77;;;6.95;;
16820;SDS011;8527;49.740;6.604;2023-06-26T01:09:44;11.15;;;7.03;;
16820;SDS011;8527;49.740;6.604;2023-06-26T01:14:49;12.48;;;7.50;;
16820;SDS011;8527;49.740;6.604;2023-06-26T01:19:47;13.52;;;7.32;;
16820;SDS011;8527;49.740;6.604;2023-06-26T01:24:53;10.90;;;6.65;;
16820;SDS011;8527;49.740;6.604;2023-06-26T01:30:05;11.15;;;6.70;;
16820;SDS011;8527;49.740;6.604;2023-06-26T01:35:11;11.38;;;7.07;;
16820;SDS011;8527;49.740;6.604;2023-06-26T01:40:12;12.20;;;6.72;;
16820;SDS011;8527;49.740;6.604;2023-06-26T01:45:18;12.50;;;7.03;;
16820;SDS011;8527;49.740;6.604;2023-06-26T01:50:28;11.93;;;7.25;;
16820;SDS011;8527;49.740;6.604;2023-06-26T01:55:32;11.60;;;7.20;;
16820;SDS011;8527;49.740;6.604;2023-06-26T02:00:40;14.07;;;7.75;;
16820;SDS011;8527;49.740;6.604;2023-06-26T02:05:39;14.05;;;7.70;;
16820;SDS011;8527;49.740;6.604;2023-06-26T02:10:39;12.20;;;7.32;;
16820;SDS011;8527;49.740;6.604;2023-06-26T02:15:46;11.18;;;7.18;;
16820;SDS011;8527;49.740;6.604;2023-06-26T02:20:47;12.35;;;7.30;;
16820;SDS011;8527;49.740;6.604;2023-06-26T02:25:46;13.07;;;7.95;;
16820;SDS011;8527;49.740;6.604;2023-06-26T02:30:47;13.48;;;7.72;;
16820;SDS011;8527;49.740;6.604;2023-06-26T02:35:45;12.40;;;7.72;;
16820;SDS011;8527;49.740;6.604;2023-06-26T02:40:45;12.55;;;7.50;;
16820;SDS011;8527;49.740;6.604;2023-06-26T02:45:47;10.20;;;7.00;;
16820;SDS011;8527;49.740;6.604;2023-06-26T02:50:47;12.35;;;7.70;;
16820;SDS011;8527;49.740;6.604;2023-06-26T02:55:46;12.30;;;6.80;;
16820;SDS011;8527;49.740;6.604;2023-06-26T03:00:47;12.75;;;7.53;;
16820;SDS011;8527;49.740;6.604;2023-06-26T03:05:48;13.75;;;7.50;;
16820;SDS011;8527;49.740;6.604;2023-06-26T03:10:49;14.30;;;8.50;;
16820;SDS011;8527;49.740;6.604;2023-06-26T03:15:53;13.07;;;7.55;;
16820;SDS011;8527;49.740;6.604;2023-06-26T03:20:55;12.43;;;7.78;;
16820;SDS011;8527;49.740;6.604;2023-06-26T03:25:55;14.65;;;8.20;;
16820;SDS011;8527;49.740;6.604;2023-06-26T03:30:59;13.73;;;8.25;;
16820;SDS011;8527;49.740;6.604;2023-06-26T03:35:57;13.45;;;7.88;;
16820;SDS011;8527;49.740;6.604;2023-06-26T03:40:56;12.77;;;7.55;;
16820;SDS011;8527;49.740;6.604;2023-06-26T03:45:55;11.27;;;7.57;;
16820;SDS011;8527;49.740;6.604;2023-06-26T03:50:56;15.80;;;7.72;;
16820;SDS011;8527;49.740;6.604;2023-06-26T03:55:58;15.85;;;7.63;;
16820;SDS011;8527;49.740;6.604;2023-06-26T04:00:58;14.88;;;8.00;;
16820;SDS011;8527;49.740;6.604;2023-06-26T04:06:04;14.93;;;7.78;;
16820;SDS011;8527;49.740;6.604;2023-06-26T04:11:06;14.27;;;7.47;;
16820;SDS011;8527;49.740;6.604;2023-06-26T04:16:04;14.18;;;8.20;;
16820;SDS011;8527;49.740;6.604;2023-06-26T04:21:07;14.75;;;8.65;;
16820;SDS011;8527;49.740;6.604;2023-06-26T04:26:07;14.13;;;7.57;;
16820;SDS011;8527;49.740;6.604;2023-06-26T04:31:08;16.45;;;8.90;;
16820;SDS011;8527;49.740;6.604;2023-06-26T04:36:10;14.32;;;8.40;;
16820;SDS011;8527;49.740;6.604;2023-06-26T04:41:11;14.68;;;8.63;;
16820;SDS011;8527;49.740;6.604;2023-06-26T04:46:09;17.40;;;9.30;;
16820;SDS011;8527;49.740;6.604;2023-06-26T04:51:10;20.08;;;8.93;;
16820;SDS011;8527;49.740;6.604;2023-06-26T04:56:15;17.48;;;8.90;;
16820;SDS011;8527;49.740;6.604;2023-06-26T05:01:17;14.65;;;8.77;;
16820;SDS011;8527;49.740;6.604;2023-06-26T05:06:18;16.27;;;9.20;;
16820;SDS011;8527;49.740;6.604;2023-06-26T05:11:19;14.70;;;8.52;;
16820;SDS011;8527;49.740;6.604;2023-06-26T05:16:18;13.75;;;8.85;;
16820;SDS011;8527;49.740;6.604;2023-06-26T05:21:22;17.38;;;9.50;;
16820;SDS011;8527;49.740;6.604;2023-06-26T05:26:24;13.77;;;8.77;;
16820;SDS011;8527;49.740;6.604;2023-06-26T05:31:24;13.60;;;8.35;;
16820;SDS011;8527;49.740;6.604;2023-06-26T05:36:26;15.05;;;9.18;;
16820;SDS011;8527;49.740;6.604;2023-06-26T05:41:28;12.88;;;8.35;;
16820;SDS011;8527;49.740;6.604;2023-06-26T05:46:30;18.35;;;8.20;;
16820;SDS011;8527;49.740;6.604;2023-06-26T05:51:31;12.57;;;8.30;;
16820;SDS011;8527;49.740;6.604;2023-06-26T05:56:31;17.10;;;8.50;;
16820;SDS011;8527;49.740;6.604;2023-06-26T06:01:31;14.77;;;8.93;;
16820;SDS011;8527;49.740;6.604;2023-06-26T06:06:33;18.55;;;8.10;;
16820;SDS011;8527;49.740;6.604;2023-06-26T06:11:34;14.60;;;8.45;;
16820;SDS011;8527;49.740;6.604;2023-06-26T06:16:40;13.82;;;7.68;;
16820;SDS011;8527;49.740;6.604;2023-06-26T06:21:44;11.13;;;7.57;;
16820;SDS011;8527;49.740;6.604;2023-06-26T06:26:43;11.57;;;7.32;;
16820;SDS011;8527;49.740;6.604;2023-06-26T06:31:41;16.27;;;7.70;;
16820;SDS011;8527;49.740;6.604;2023-06-26T06:36:39;11.57;;;7.60;;
16820;SDS011;8527;49.740;6.604;2023-06-26T06:41:40;16.00;;;7.00;;
16820;SDS011;8527;49.740;6.604;2023-06-26T06:46:39;10.55;;;6.35;;
16820;SDS011;8527;49.740;6.604;2023-06-26T06:51:37;10.75;;;7.07;;
16820;SDS011;8527;49.740;6.604;2023-06-26T06:56:40;12.32;;;6.18;;
16820;SDS011;8527;49.740;6.604;2023-06-26T07:01:42;11.88;;;6.05;;
16820;SDS011;8527;49.740;6.604;2023-06-26T07:06:42;6.57;;;4.10;;
16820;SDS011;8527;49.740;6.604;2023-06-26T07:11:43;6.63;;;4.00;;
16820;SDS011;8527;49.740;6.604;2023-06-26T07:16:44;8.02;;;3.50;;
16820;SDS011;8527;49.740;6.604;2023-06-26T07:21:49;8.18;;;3.75;;
16820;SDS011;8527;49.740;6.604;2023-06-26T07:26:50;4.20;;;3.28;;
16820;SDS011;8527;49.740;6.604;2023-06-26T07:31:48;5.53;;;3.60;;
16820;SDS011;8527;49.740;6.604;2023-06-26T07:36:47;5.57;;;3.20;;
16820;SDS011;8527;49.740;6.604;2023-06-26T07:41:45;7.30;;;3.53;;
16820;SDS011;8527;49.740;6.604;2023-06-26T07:46:46;6.00;;;3.30;;
16820;SDS011;8527;49.740;6.604;2023-06-26T07:51:44;6.00;;;3.30;;
16820;SDS011;8527;49.740;6.604;2023-06-26T07:56:52;10.13;;;3.70;;
16820;SDS011;8527;49.740;6.604;2023-06-26T08:01:55;5.18;;;3.17;;
16820;SDS011;8527;49.740;6.604;2023-06-26T08:06:58;5.07;;;2.50;;
16820;SDS011;8527;49.740;6.604;2023-06-26T08:12:01;5.88;;;2.90;;
16820;SDS011;8527;49.740;6.604;2023-06-26T08:17:02;5.82;;;2.70;;
16820;SDS011;8527;49.740;6.604;2023-06-26T08:22:00;5.07;;;3.00;;
16820;SDS011;8527;49.740;6.604;2023-06-26T08:26:58;7.15;;;2.90;;
16820;SDS011;8527;49.740;6.604;2023-06-26T08:32:03;8.25;;;3.00;;
16820;SDS011;8527;49.740;6.604;2023-06-26T08:37:05;5.75;;;2.80;;
16820;SDS011;8527;49.740;6.604;2023-06-26T08:42:05;5.82;;;3.00;;
16820;SDS011;8527;49.740;6.604;2023-06-26T08:47:07;8.05;;;2.85;;
16820;SDS011;8527;49.740;6.604;2023-06-26T08:52:13;3.53;;;2.72;;
16820;SDS011;8527;49.740;6.604;2023-06-26T08:57:21;6.60;;;3.03;;
16820;SDS011;8527;49.740;6.604;2023-06-26T09:02:32;6.03;;;2.90;;
16820;SDS011;8527;49.740;6.604;2023-06-26T09:07:33;6.90;;;3.28;;
16820;SDS011;8527;49.740;6.604;2023-06-26T09:12:35;9.30;;;3.80;;
16820;SDS011;8527;49.740;6.604;2023-06-26T09:17:39;7.15;;;3.20;;
16820;SDS011;8527;49.740;6.604;2023-06-26T09:22:40;9.65;;;3.60;;
16820;SDS011;8527;49.740;6.604;2023-06-26T09:27:39;8.75;;;3.38;;
16820;SDS011;8527;49.740;6.604;2023-06-26T09:32:40;6.88;;;3.53;;
16820;SDS011;8527;49.740;6.604;2023-06-26T09:37:41;9.02;;;3.58;;
16820;SDS011;8527;49.740;6.604;2023-06-26T09:42:42;6.68;;;3.47;;
16820;SDS011;8527;49.740;6.604;2023-06-26T09:47:53;6.43;;;3.35;;
16820;SDS011;8527;49.740;6.604;2023-06-26T09:52:52;7.82;;;3.30;;
16820;SDS011;8527;49.740;6.604;2023-06-26T09:57:50;12.32;;;3.55;;
16820;SDS011;8527;49.740;6.604;2023-06-26T10:02:56;10.20;;;3.30;;
16820;SDS011;8527;49.740;6.604;2023-06-26T10:07:56;8.23;;;3.70;;
16820;SDS011;8527;49.740;6.604;2023-06-26T10:12:57;8.88;;;3.38;;
16820;SDS011;8527;49.740;6.604;2023-06-26T10:18:04;5.25;;;2.90;;
16820;SDS011;8527;49.740;6.604;2023-06-26T10:23:03;5.97;;;2.80;;
16820;SDS011;8527;49.740;6.604;2023-06-26T10:28:08;8.60;;;3.00;;
16820;SDS011;8527;49.740;6.604;2023-06-26T10:33:18;6.75;;;2.90;;
16820;SDS011;8527;49.740;6.604;2023-06-26T10:38:24;6.53;;;2.55;;
16820;SDS011;8527;49.740;6.604;2023-06-26T10:43:49;11.63;;;2.93;;
16820;SDS011;8527;49.740;6.604;2023-06-26T10:48:58;6.88;;;2.90;;
16820;SDS011;8527;49.740;6.604;2023-06-26T10:53:58;9.38;;;2.85;;
16820;SDS011;8527;49.740;6.604;2023-06-26T10:59:11;8.20;;;3.58;;
16820;SDS011;8527;49.740;6.604;2023-06-26T11:04:14;6.18;;;3.40;;
16820;SDS011;8527;49.740;6.604;2023-06-26T11:09:23;6.40;;;2.70;;
16820;SDS011;8527;49.740;6.604;2023-06-26T11:14:28;8.07;;;2.90;;
16820;SDS011;8527;49.740;6.604;2023-06-26T11:19:31;4.55;;;2.47;;
16820;SDS011;8527;49.740;6.604;2023-06-26T11:24:29;7.93;;;3.00;;
16820;SDS011;8527;49.740;6.604;2023-06-26T11:29:29;9.00;;;3.30;;
16820;SDS011;8527;49.740;6.604;2023-06-26T11:34:37;8.23;;;2.95;;
16820;SDS011;8527;49.740;6.604;2023-06-26T11:39:38;8.57;;;2.75;;
16820;SDS011;8527;49.740;6.604;2023-06-26T11:44:40;6.05;;;2.90;;
16820;SDS011;8527;49.740;6.604;2023-06-26T11:49:44;7.30;;;2.70;;
16820;SDS011;8527;49.740;6.604;2023-06-26T11:54:44;10.88;;;2.55;;
16820;SDS011;8527;49.740;6.604;2023-06-26T11:59:43;8.13;;;2.47;;
16820;SDS011;8527;49.740;6.604;2023-06-26T12:04:47;8.38;;;2.38;;
16820;SDS011;8527;49.740;6.604;2023-06-26T12:09:51;6.28;;;2.33;;
16820;SDS011;8527;49.740;6.604;2023-06-26T12:14:50;5.93;;;2.45;;
16820;SDS011;8527;49.740;6.604;2023-06-26T12:19:52;7.25;;;2.60;;
16820;SDS011;8527;49.740;6.604;2023-06-26T12:24:50;8.82;;;2.50;;
16820;SDS011;8527;49.740;6.604;2023-06-26T12:29:49;7.53;;;2.70;;
16820;SDS011;8527;49.740;6.604;2023-06-26T12:34:52;8.75;;;3.05;;
16820;SDS011;8527;49.740;6.604;2023-06-26T12:39:51;4.43;;;2.50;;
16820;SDS011;8527;49.740;6.604;2023-06-26T12:44:51;5.25;;;2.35;;
16820;SDS011;8527;49.740;6.604;2023-06-26T12:49:54;7.50;;;2.60;;
16820;SDS011;8527;49.740;6.604;2023-06-26T12:54:53;8.75;;;2.85;;
16820;SDS011;8527;49.740;6.604;2023-06-26T12:59:53;7.13;;;2.63;;
16820;SDS011;8527;49.740;6.604;2023-06-26T13:04:54;6.85;;;2.60;;
16820;SDS011;8527;49.740;6.604;2023-06-26T13:09:55;7.85;;;2.50;;
16820;SDS011;8527;49.740;6.604;2023-06-26T13:14:57;5.95;;;2.78;;
16820;SDS011;8527;49.740;6.604;2023-06-26T13:19:58;6.82;;;2.80;;
16820;SDS011;8527;49.740;6.604;2023-06-26T13:24:57;7.93;;;2.70;;
16820;SDS011;8527;49.740;6.604;2023-06-26T13:29:58;12.05;;;2.72;;
16820;SDS011;8527;49.740;6.604;2023-06-26T13:35:00;8.23;;;2.78;;
16820;SDS011;8527;49.740;6.604;2023-06-26T13:40:05;8.57;;;2.83;;
16820;SDS011;8527;49.740;6.604;2023-06-26T13:45:16;11.73;;;3.10;;
16820;SDS011;8527;49.740;6.604;2023-06-26T13:50:23;9.73;;;2.70;;
16820;SDS011;8527;49.740;6.604;2023-06-26T13:55:22;8.77;;;2.80;;
16820;SDS011;8527;49.740;6.604;2023-06-26T14:00:20;6.15;;;2.97;;
16820;SDS011;8527;49.740;6.604;2023-06-26T14:05:24;10.00;;;2.42;;
16820;SDS011;8527;49.740;6.604;2023-06-26T14:10:23;5.25;;;2.45;;
16820;SDS011;8527;49.740;6.604;2023-06-26T14:15:21;6.45;;;2.85;;
16820;SDS011;8527;49.740;6.604;2023-06-26T14:20:21;10.32;;;2.88;;
16820;SDS011;8527;49.740;6.604;2023-06-26T14:25:23;10.27;;;3.00;;
16820;SDS011;8527;49.740;6.604;2023-06-26T14:30:23;12.52;;;2.70;;
16820;SDS011;8527;49.740;6.604;2023-06-26T14:35:21;6.97;;;2.80;;
16820;SDS011;8527;49.740;6.604;2023-06-26T14:40:22;6.00;;;2.38;;
16820;SDS011;8527;49.740;6.604;2023-06-26T14:45:26;6.75;;;2.65;;
16820;SDS011;8527;49.740;6.604;2023-06-26T14:50:24;6.43;;;2.53;;
16820;SDS011;8527;49.740;6.604;2023-06-26T14:55:34;6.38;;;2.70;;
16820;SDS011;8527;49.740;6.604;2023-06-26T15:00:33;8.20;;;2.63;;
16820;SDS011;8527;49.740;6.604;2023-06-26T15:05:32;6.68;;;2.38;;
16820;SDS011;8527;49.740;6.604;2023-06-26T15:10:36;9.63;;;2.50;;
16820;SDS011;8527;49.740;6.604;2023-06-26T15:15:35;5.22;;;2.38;;
16820;SDS011;8527;49.740;6.604;2023-06-26T15:20:33;4.78;;;2.25;;
16820;SDS011;8527;49.740;6.604;2023-06-26T15:25:35;13.52;;;2.95;;
16820;SDS011;8527;49.740;6.604;2023-06-26T15:30:34;5.93;;;2.53;;
16820;SDS011;8527;49.740;6.604;2023-06-26T15:35:32;9.65;;;2.95;;
16820;SDS011;8527;49.740;6.604;2023-06-26T15:40:34;6.60;;;2.70;;
16820;SDS011;8527;49.740;6.604;2023-06-26T15:45:33;9.30;;;2.90;;
16820;SDS011;8527;49.740;6.604;2023-06-26T15:50:31;10.50;;;2.65;;
16820;SDS011;8527;49.740;6.604;2023-06-26T15:55:29;12.13;;;2.88;;
16820;SDS011;8527;49.740;6.604;2023-06-26T16:00:30;4.32;;;2.40;;
16820;SDS011;8527;49.740;6.604;2023-06-26T16:05:29;5.30;;;2.95;;
16820;SDS011;8527;49.740;6.604;2023-06-26T16:10:30;11.98;;;2.75;;
16820;SDS011;8527;49.740;6.604;2023-06-26T16:15:31;7.75;;;2.67;;
16820;SDS011;8527;49.740;6.604;2023-06-26T16:20:29;6.13;;;2.95;;
16820;SDS011;8527;49.740;6.604;2023-06-26T16:25:36;8.60;;;2.70;;
16820;SDS011;8527;49.740;6.604;2023-06-26T16:30:37;7.40;;;2.78;;
16820;SDS011;8527;49.740;6.604;2023-06-26T16:35:35;11.23;;;2.90;;
16820;SDS011;8527;49.740;6.604;2023-06-26T16:40:34;11.85;;;3.08;;
16820;SDS011;8527;49.740;6.604;2023-06-26T16:45:32;7.55;;;2.42;;
16820;SDS011;8527;49.740;6.604;2023-06-26T16:50:33;10.48;;;2.75;;
16820;SDS011;8527;49.740;6.604;2023-06-26T16:55:32;8.30;;;2.92;;
16820;SDS011;8527;49.740;6.604;2023-06-26T17:00:32;6.28;;;2.58;;
16820;SDS011;8527;49.740;6.604;2023-06-26T17:05:36;9.30;;;2.58;;
16820;SDS011;8527;49.740;6.604;2023-06-26T17:10:34;7.05;;;2.55;;
16820;SDS011;8527;49.740;6.604;2023-06-26T17:15:33;11.15;;;2.67;;
16820;SDS011;8527;49.740;6.604;2023-06-26T17:20:32;11.40;;;2.90;;
16820;SDS011;8527;49.740;6.604;2023-06-26T17:25:33;8.95;;;3.15;;
16820;SDS011;8527;49.740;6.604;2023-06-26T17:30:31;8.40;;;2.60;;
16820;SDS011;8527;49.740;6.604;2023-06-26T17:35:32;5.88;;;2.40;;
16820;SDS011;8527;49.740;6.604;2023-06-26T17:40:35;9.73;;;2.80;;
16820;SDS011;8527;49.740;6.604;2023-06-26T17:45:34;7.40;;;2.72;;
16820;SDS011;8527;49.740;6.604;2023-06-26T17:50:32;6.18;;;2.85;;
16820;SDS011;8527;49.740;6.604;2023-06-26T17:55:36;8.15;;;2.67;;
16820;SDS011;8527;49.740;6.604;2023-06-26T18:00:35;11.07;;;3.00;;
16820;SDS011;8527;49.740;6.604;2023-06-26T18:05:36;7.43;;;2.53;;
16820;SDS011;8527;49.740;6.604;2023-06-26T18:10:37;8.38;;;2.75;;
16820;SDS011;8527;49.740;6.604;2023-06-26T18:15:36;8.85;;;2.60;;
16820;SDS011;8527;49.740;6.604;2023-06-26T18:20:34;6.05;;;2.50;;
16820;SDS011;8527;49.740;6.604;2023-06-26T18:25:33;9.90;;;2.60;;
16820;SDS011;8527;49.740;6.604;2023-06-26T18:30:34;7.45;;;2.67;;
16820;SDS011;8527;49.740;6.604;2023-06-26T18:35:33;8.77;;;2.47;;
16820;SDS011;8527;49.740;6.604;2023-06-26T18:40:31;9.23;;;2.97;;
16820;SDS011;8527;49.740;6.604;2023-06-26T18:45:30;6.05;;;2.55;;
16820;SDS011;8527;49.740;6.604;2023-06-26T18:50:31;9.20;;;2.90;;
16820;SDS011;8527;49.740;6.604;2023-06-26T18:55:29;9.10;;;2.78;;
16820;SDS011;8527;49.740;6.604;2023-06-26T19:00:31;10.98;;;2.67;;
16820;SDS011;8527;49.740;6.604;2023-06-26T19:05:32;8.77;;;2.83;;
16820;SDS011;8527;49.740;6.604;2023-06-26T19:10:31;8.73;;;3.10;;
16820;SDS011;8527;49.740;6.604;2023-06-26T19:15:30;8.20;;;2.90;;
16820;SDS011;8527;49.740;6.604;2023-06-26T19:20:34;6.97;;;2.97;;
16820;SDS011;8527;49.740;6.604;2023-06-26T19:25:38;6.60;;;2.83;;
16820;SDS011;8527;49.740;6.604;2023-06-26T19:30:37;7.88;;;2.70;;
16820;SDS011;8527;49.740;6.604;2023-06-26T19:35:38;6.00;;;2.70;;
16820;SDS011;8527;49.740;6.604;2023-06-26T19:40:37;10.43;;;3.10;;
16820;SDS011;8527;49.740;6.604;2023-06-26T19:45:36;7.13;;;2.85;;
16820;SDS011;8527;49.740;6.604;2023-06-26T19:50:35;7.50;;;2.63;;
16820;SDS011;8527;49.740;6.604;2023-06-26T19:55:36;8.48;;;2.83;;
16820;SDS011;8527;49.740;6.604;2023-06-26T20:00:34;7.82;;;2.70;;
16820;SDS011;8527;49.740;6.604;2023-06-26T20:05:32;8.13;;;2.83;;
16820;SDS011;8527;49.740;6.604;2023-06-26T20:10:33;6.75;;;2.80;;
16820;SDS011;8527;49.740;6.604;2023-06-26T20:15:34;4.72;;;2.58;;
16820;SDS011;8527;49.740;6.604;2023-06-26T20:20:34;9.10;;;2.70;;
16820;SDS011;8527;49.740;6.604;2023-06-26T20:25:35;6.60;;;2.75;;
16820;SDS011;8527;49.740;6.604;2023-06-26T20:30:33;6.65;;;3.03;;
16820;SDS011;8527;49.740;6.604;2023-06-26T20:35:32;7.38;;;2.88;;
16820;SDS011;8527;49.740;6.604;2023-06-26T20:40:31;9.57;;;2.67;;
16820;SDS011;8527;49.740;6.604;2023-06-26T20:45:32;7.55;;;2.58;;
16820;SDS011;8527;49.740;6.604;2023-06-26T20:50:31;6.85;;;2.70;;
16820;SDS011;8527;49.740;6.604;2023-06-26T20:55:30;7.35;;;3.00;;
16820;SDS011;8527;49.740;6.604;2023-06-26T21:00:32;7.70;;;3.03;;
16820;SDS011;8527;49.740;6.604;2023-06-26T21:05:30;9.15;;;2.97;;
16820;SDS011;8527;49.740;6.604;2023-06-26T21:10:28;10.93;;;3.40;;
16820;SDS011;8527;49.740;6.604;2023-06-26T21:15:27;9.25;;;2.75;;
16820;SDS011;8527;49.740;6.604;2023-06-26T21:20:28;6.68;;;2.97;;
16820;SDS011;8527;49.740;6.604;2023-06-26T21:25:26;7.75;;;2.90;;
16820;SDS011;8527;49.740;6.604;2023-06-26T21:30:25;7.32;;;2.90;;
16820;SDS011;8527;49.740;6.604;2023-06-26T21:35:28;7.88;;;2.90;;
16820;SDS011;8527;49.740;6.604;2023-06-26T21:40:26;8.50;;;3.00;;
16820;SDS011;8527;49.740;6.604;2023-06-26T21:45:27;7.95;;;2.90;;
16820;SDS011;8527;49.740;6.604;2023-06-26T21:50:28;12.73;;;3.03;;
16820;SDS011;8527;49.740;6.604;2023-06-26T21:55:27;7.15;;;2.80;;
16820;SDS011;8527;49.740;6.604;2023-06-26T22:00:26;6.60;;;2.80;;
16820;SDS011;8527;49.740;6.604;2023-06-26T22:05:24;5.15;;;2.75;;
16820;SDS011;8527;49.740;6.604;2023-06-26T22:10:28;9.68;;;3.10;;
16820;SDS011;8527;49.740;6.604;2023-06-26T22:15:26;7.50;;;3.00;;
16820;SDS011;8527;49.740;6.604;2023-06-26T22:20:25;9.55;;;3.25;;
16820;SDS011;8527;49.740;6.604;2023-06-26T22:25:28;7.90;;;2.92;;
16820;SDS011;8527;49.740;6.604;2023-06-26T22:30:26;6.70;;;2.85;;
16820;SDS011;8527;49.740;6.604;2023-06-26T22:35:24;7.85;;;2.85;;
16820;SDS011;8527;49.740;6.604;2023-06-26T22:40:23;8.13;;;2.60;;
16820;SDS011;8527;49.740;6.604;2023-06-26T22:45:25;7.72;;;2.90;;
16820;SDS011;8527;49.740;6.604;2023-06-26T22:50:27;9.60;;;3.00;;
16820;SDS011;8527;49.740;6.604;2023-06-26T22:55:28;15.63;;;3.17;;
16820;SDS011;8527;49.740;6.604;2023-06-26T23:00:34;6.65;;;2.85;;
16820;SDS011;8527;49.740;6.604;2023-06-26T23:05:37;7.13;;;2.63;;
16820;SDS011;8527;49.740;6.604;2023-06-26T23:10:38;8.55;;;2.72;;
16820;SDS011;8527;49.740;6.604;2023-06-26T23:15:42;5.45;;;2.63;;
16820;SDS011;8527;49.740;6.604;2023-06-26T23:20:43;9.85;;;3.13;;
16820;SDS011;8527;49.740;6.604;2023-06-26T23:25:42;8.00;;;2.80;;
16820;SDS011;8527;49.740;6.604;2023-06-26T23:30:43;11.15;;;3.00;;
16820;SDS011;8527;49.740;6.604;2023-06-26T23:35:42;5.05;;;2.58;;
16820;SDS011;8527;49.740;6.604;2023-06-26T23:40:41;8.60;;;2.95;;
16820;SDS011;8527;49.740;6.604;2023-06-26T23:45:42;8.45;;;2.92;;
16820;SDS011;8527;49.740;6.604;2023-06-26T23:50:41;7.88;;;2.60;;
16820;SDS011;8527;49.740;6.604;2023-06-26T23:55:46;8.45;;;2.65;;
